createdAt,value
2022-09-24T00:03:25.285Z,101071.69
2022-09-24T00:08:26.985Z,101072.72
2022-09-24T00:13:29.485Z,101074.03
2022-09-24T00:18:31.232Z,101064.41
2022-09-24T00:23:32.836Z,101068.25
2022-09-24T00:28:34.720Z,101061.84
2022-09-24T00:33:36.489Z,101061.84
2022-09-24T00:38:38.052Z,101058.03
2022-09-24T00:43:39.691Z,101057.44
2022-09-24T00:48:43.941Z,101051.72
2022-09-24T00:53:48.590Z,101054.00
2022-09-24T00:58:54.959Z,101055.72
2022-09-24T01:03:58.156Z,101047.44
2022-09-24T01:09:00.912Z,101039.03
2022-09-24T01:14:43.752Z,101040.31
2022-09-24T01:20:11.097Z,101034.13
2022-09-24T01:25:59.575Z,101033.31
2022-09-24T01:31:11.992Z,101026.94
2022-09-24T01:36:16.226Z,101026.53
2022-09-24T01:41:19.072Z,101023.53
2022-09-24T01:46:22.805Z,101028.25
2022-09-24T01:51:56.177Z,101026.09
2022-09-24T01:57:07.583Z,101020.56
2022-09-24T02:02:12.196Z,101022.66
2022-09-24T02:07:35.180Z,101018.69
2022-09-24T02:12:42.050Z,101007.78
2022-09-24T02:17:48.942Z,101005.47
2022-09-24T02:22:54.246Z,101004.63
2022-09-24T02:27:56.282Z,101002.69
2022-09-24T02:32:58.971Z,101004.22
2022-09-24T02:38:04.114Z,101003.03
2022-09-24T02:43:07.796Z,101011.56
2022-09-24T02:48:09.365Z,101008.13
2022-09-24T02:53:10.936Z,101005.66
2022-09-24T02:58:12.563Z,101005.38
2022-09-24T03:03:15.589Z,101022.63
2022-09-24T03:08:17.353Z,101023.16
2022-09-24T03:13:19.088Z,101008.41
2022-09-24T03:18:20.779Z,101011.84
2022-09-24T03:23:22.450Z,100999.78
2022-09-24T03:28:24.154Z,100994.03
2022-09-24T03:33:34.033Z,100993.47
2022-09-24T03:38:37.371Z,100991.53
2022-09-24T03:43:39.194Z,100997.25
2022-09-24T03:48:41.436Z,101002.97
2022-09-24T03:53:43.155Z,101004.41
2022-09-24T03:58:48.304Z,100995.03
2022-09-24T04:03:50.787Z,101000.72
2022-09-24T04:08:52.589Z,101006.88
2022-09-24T04:13:54.307Z,101002.31
2022-09-24T04:18:55.997Z,101005.22
2022-09-24T04:23:57.850Z,101002.66
2022-09-24T04:28:59.664Z,101004.97
2022-09-24T04:34:02.045Z,101008.19
2022-09-24T04:39:03.854Z,101003.13
2022-09-24T04:44:05.623Z,101006.13
2022-09-24T04:49:09.197Z,101012.41
2022-09-24T04:54:11.044Z,101009.47
2022-09-24T04:59:12.632Z,101009.03
2022-09-24T05:04:14.205Z,101016.69
2022-09-24T05:09:15.992Z,101021.91
2022-09-24T05:14:17.858Z,101014.19
2022-09-24T05:19:20.343Z,101019.16
2022-09-24T05:24:22.194Z,101021.72
2022-09-24T05:29:23.874Z,101021.78
2022-09-24T05:34:25.474Z,101026.44
2022-09-24T05:39:33.479Z,101033.84
2022-09-24T05:44:37.334Z,101041.38
2022-09-24T05:49:39.378Z,101040.91
2022-09-24T05:54:41.017Z,101044.53
2022-09-24T05:59:42.753Z,101063.91
2022-09-24T06:04:44.328Z,101062.56
2022-09-24T06:09:47.400Z,101070.75
2022-09-24T06:14:49.059Z,101068.63
2022-09-24T06:19:50.798Z,101084.34
2022-09-24T06:24:52.429Z,101077.84
2022-09-24T06:29:54.059Z,101093.94
2022-09-24T06:34:59.173Z,101087.47
2022-09-24T06:40:01.156Z,101098.94
2022-09-24T06:45:02.996Z,101109.09
2022-09-24T06:50:05.189Z,101107.34
2022-09-24T06:55:07.124Z,101110.31
2022-09-24T07:00:10.124Z,101112.88
2022-09-24T07:05:11.762Z,101129.38
2022-09-24T07:10:15.114Z,101124.03
2022-09-24T07:15:17.128Z,101127.66
2022-09-24T07:20:19.103Z,101126.22
2022-09-24T07:25:20.774Z,101130.97
2022-09-24T07:30:22.429Z,101136.38
2022-09-24T07:35:24.191Z,101140.66
2022-09-24T07:40:26.914Z,101139.72
2022-09-24T07:45:29.831Z,101150.03
2022-09-24T07:50:39.418Z,101161.13
2022-09-24T07:55:41.627Z,101163.59
2022-09-24T08:00:43.445Z,101167.69
2022-09-24T08:05:45.841Z,101164.63
2022-09-24T08:10:47.633Z,101174.78
2022-09-24T08:15:57.431Z,101174.03
2022-09-24T08:21:03.969Z,101175.13
2022-09-24T08:26:05.920Z,101183.97
2022-09-24T08:31:11.288Z,101181.00
2022-09-24T08:36:12.962Z,101186.50
2022-09-24T08:41:31.095Z,101187.97
2022-09-24T08:47:08.989Z,101190.59
2022-09-24T08:52:34.769Z,101197.53
2022-09-24T08:58:02.722Z,101206.59
2022-09-24T09:03:32.243Z,101205.63
2022-09-24T09:09:06.738Z,101215.28
2022-09-24T09:14:12.221Z,101210.91
2022-09-24T09:19:16.912Z,101226.53
2022-09-24T09:24:23.392Z,101227.34
2022-09-24T09:29:28.044Z,101238.81
2022-09-24T09:34:49.835Z,101248.19
2022-09-24T09:40:10.391Z,101242.78
2022-09-24T09:45:30.427Z,101258.34
2022-09-24T09:50:49.429Z,101246.25
2022-09-24T09:55:57.407Z,101252.91
2022-09-24T10:01:08.271Z,101258.53
2022-09-24T10:06:13.014Z,101258.75
2022-09-24T10:11:16.459Z,101251.84
2022-09-24T10:16:18.157Z,101264.00
2022-09-24T10:21:34.785Z,101256.84
2022-09-24T10:26:44.534Z,101253.50
2022-09-24T10:31:48.940Z,101267.47
2022-09-24T10:36:52.960Z,101261.00
2022-09-24T10:41:57.098Z,101266.56
2022-09-24T10:47:19.695Z,101268.94
2022-09-24T10:52:57.519Z,101274.81
2022-09-24T10:58:28.815Z,101276.66
2022-09-24T11:04:05.541Z,101281.88
2022-09-24T11:09:27.894Z,101280.59
2022-09-24T11:14:35.849Z,101282.63
2022-09-24T11:19:51.863Z,101275.84
2022-09-24T11:25:31.085Z,101273.13
2022-09-24T11:30:47.883Z,101278.72
2022-09-24T11:36:04.280Z,101288.00
2022-09-24T11:41:36.625Z,101296.53
2022-09-24T11:46:52.411Z,101296.16
2022-09-24T11:52:12.436Z,101292.97
2022-09-24T11:57:16.139Z,101300.88
2022-09-24T12:02:28.654Z,101296.41
2022-09-24T12:07:34.653Z,101292.38
2022-09-24T12:12:42.165Z,101292.53
2022-09-24T12:17:58.003Z,101288.91
2022-09-24T12:23:07.934Z,101288.72
2022-09-24T12:28:14.006Z,101303.47
2022-09-24T12:33:35.547Z,101291.94
2022-09-24T12:39:00.735Z,101292.38
2022-09-24T12:44:14.383Z,101300.28
2022-09-24T12:49:26.748Z,101297.28
2022-09-24T12:54:33.176Z,101304.34
2022-09-24T12:59:45.864Z,101304.34
2022-09-24T13:05:11.967Z,101303.91
2022-09-24T13:10:16.238Z,101306.03
2022-09-24T13:15:35.152Z,101298.81
2022-09-24T13:20:47.543Z,101312.53
2022-09-24T13:26:09.195Z,101301.59
2022-09-24T13:31:22.848Z,101305.84
2022-09-24T13:36:54.861Z,101310.16
2022-09-24T13:42:15.145Z,101314.38
2022-09-24T13:47:31.984Z,101315.47
2022-09-24T13:52:39.632Z,101316.75
2022-09-24T13:57:46.658Z,101330.41
2022-09-24T14:03:25.740Z,101323.56
2022-09-24T14:08:30.068Z,101318.44
2022-09-24T14:13:32.325Z,101318.84
2022-09-24T14:18:34.075Z,101324.78
2022-09-24T14:23:51.469Z,101320.28
2022-09-24T14:28:54.519Z,101319.03
2022-09-24T14:33:56.570Z,101328.22
2022-09-24T14:39:03.356Z,101325.88
2022-09-24T14:44:26.098Z,101333.75
2022-09-24T14:49:31.185Z,101331.63
2022-09-24T14:54:34.670Z,101335.06
2022-09-24T14:59:38.099Z,101343.06
2022-09-24T15:04:39.932Z,101343.41
2022-09-24T15:09:41.626Z,101347.00
2022-09-24T15:14:54.573Z,101345.75
2022-09-24T15:19:57.946Z,101332.59
2022-09-24T15:25:02.063Z,101333.19
2022-09-24T15:30:08.084Z,101338.34
2022-09-24T15:35:15.195Z,101338.94
2022-09-24T15:40:23.419Z,101341.66
2022-09-24T15:45:25.811Z,101337.38
2022-09-24T15:50:27.507Z,101344.31
2022-09-24T15:55:30.953Z,101348.16
2022-09-24T16:00:33.291Z,101359.19
2022-09-24T16:05:34.916Z,101356.66
2022-09-24T16:10:36.929Z,101362.25
2022-09-24T16:15:39.576Z,101366.41
2022-09-24T16:20:42.328Z,101372.88
2022-09-24T16:25:58.943Z,101372.09
2022-09-24T16:31:07.130Z,101376.00
2022-09-24T16:36:09.204Z,101378.41
2022-09-24T16:41:10.938Z,101380.25
2022-09-24T16:46:16.384Z,101390.72
2022-09-24T16:51:21.519Z,101400.25
2022-09-24T16:56:23.535Z,101402.47
2022-09-24T17:01:25.365Z,101407.88
2022-09-24T17:06:31.365Z,101411.00
2022-09-24T17:11:33.139Z,101412.22
2022-09-24T17:16:35.005Z,101426.69
2022-09-24T17:21:38.798Z,101432.63
2022-09-24T17:26:40.479Z,101425.34
2022-09-24T17:31:42.259Z,101438.03
2022-09-24T17:36:43.943Z,101439.88
2022-09-24T17:41:45.531Z,101442.94
2022-09-24T17:46:47.189Z,101445.03
2022-09-24T17:51:49.461Z,101445.91
2022-09-24T17:56:51.104Z,101450.59
2022-09-24T18:01:52.825Z,101457.03
2022-09-24T18:06:54.501Z,101461.34
2022-09-24T18:11:56.966Z,101462.06
2022-09-24T18:16:59.912Z,101461.31
2022-09-24T18:22:03.480Z,101463.53
2022-09-24T18:27:05.286Z,101472.94
2022-09-24T18:32:07.427Z,101490.53
2022-09-24T18:37:09.001Z,101492.63
2022-09-24T18:42:10.802Z,101489.97
2022-09-24T18:47:14.970Z,101494.19
2022-09-24T18:52:16.550Z,101507.38
2022-09-24T18:57:18.291Z,101504.13
2022-09-24T19:02:23.757Z,101503.66
2022-09-24T19:07:25.694Z,101496.50
2022-09-24T19:12:29.903Z,101495.66
2022-09-24T19:17:32.719Z,101513.03
2022-09-24T19:22:34.395Z,101507.97
2022-09-24T19:27:36.012Z,101513.41
2022-09-24T19:32:38.951Z,101527.19
2022-09-24T19:37:40.623Z,101524.28
2022-09-24T19:42:44.123Z,101528.13
2022-09-24T19:47:46.073Z,101528.03
2022-09-24T19:52:48.696Z,101521.13
2022-09-24T19:57:50.441Z,101524.66
2022-09-24T20:02:54.322Z,101525.72
2022-09-24T20:07:55.936Z,101533.72
2022-09-24T20:12:58.285Z,101536.38
2022-09-24T20:18:03.129Z,101536.94
2022-09-24T20:23:10.904Z,101543.50
2022-09-24T20:28:16.463Z,101543.72
2022-09-24T20:33:20.307Z,101540.13
2022-09-24T20:38:24.055Z,101547.09
2022-09-24T20:43:27.740Z,101535.75
2022-09-24T20:48:32.180Z,101544.41
2022-09-24T20:53:34.667Z,101553.09
2022-09-24T20:58:37.735Z,101545.69
2022-09-24T21:03:44.848Z,101546.56
2022-09-24T21:08:46.941Z,101548.66
2022-09-24T21:13:53.755Z,101555.94
2022-09-24T21:18:55.877Z,101558.03
2022-09-24T21:24:01.339Z,101551.16
2022-09-24T21:29:10.624Z,101556.00
2022-09-24T21:34:19.142Z,101553.06
2022-09-24T21:39:23.276Z,101555.72
2022-09-24T21:44:25.955Z,101560.19
2022-09-24T21:49:27.675Z,101564.56
2022-09-24T21:54:30.323Z,101561.66
2022-09-24T21:59:58.182Z,101552.69
2022-09-24T22:05:01.477Z,101550.47
2022-09-24T22:10:03.103Z,101551.03
2022-09-24T22:15:05.280Z,101555.00
2022-09-24T22:20:07.557Z,101554.50
2022-09-24T22:25:09.270Z,101561.25
2022-09-24T22:30:12.513Z,101558.69
2022-09-24T22:35:32.545Z,101551.28
2022-09-24T22:40:35.336Z,101551.63
2022-09-24T22:45:37.001Z,101557.03
2022-09-24T22:50:38.664Z,101553.94
2022-09-24T22:55:40.390Z,101554.94
2022-09-24T23:00:42.382Z,101555.84
2022-09-24T23:05:45.240Z,101557.06
2022-09-24T23:10:46.871Z,101543.13
2022-09-24T23:15:48.705Z,101544.16
2022-09-24T23:20:50.379Z,101550.53
2022-09-24T23:25:51.950Z,101550.72
2022-09-24T23:31:00.036Z,101551.25
2022-09-24T23:36:03.162Z,101555.09
2022-09-24T23:41:05.411Z,101552.66
2022-09-24T23:46:07.601Z,101552.16
2022-09-24T23:51:10.109Z,101546.28
2022-09-24T23:56:13.002Z,101549.09
